createdAt,value
2023-01-10T00:00:57.051Z,99527.91
2023-01-10T00:02:03.905Z,99528.61
2023-01-10T00:03:10.031Z,99527.54
2023-01-10T00:04:12.963Z,99527.73
2023-01-10T00:05:16.334Z,99527.52
2023-01-10T00:06:19.355Z,99531.16
2023-01-10T00:07:22.221Z,99528.75
2023-01-10T00:08:25.024Z,99534.23
2023-01-10T00:09:27.930Z,99533.58
2023-01-10T00:10:31.853Z,99536.73
2023-01-10T00:11:53.744Z,99537.33
2023-01-10T00:13:15.531Z,99536.84
2023-01-10T00:14:18.373Z,99537.42
2023-01-10T00:15:21.943Z,99534.56
2023-01-10T00:16:24.850Z,99538.49
2023-01-10T00:17:27.758Z,99539.67
2023-01-10T00:18:30.779Z,99541.06
2023-01-10T00:19:33.659Z,99544.73
2023-01-10T00:20:36.703Z,99546.98
2023-01-10T00:21:39.897Z,99552.02
2023-01-10T00:22:43.163Z,99552.23
2023-01-10T00:23:46.138Z,99555.14
2023-01-10T00:24:49.027Z,99555.09
2023-01-10T00:25:51.902Z,99560.19
2023-01-10T00:26:54.915Z,99561.90
2023-01-10T00:28:16.277Z,99562.34
2023-01-10T00:29:28.203Z,99566.10
2023-01-10T00:30:31.779Z,99567.39
2023-01-10T00:31:34.748Z,99574.80
2023-01-10T00:32:37.749Z,99571.46
2023-01-10T00:33:40.682Z,99574.73
2023-01-10T00:34:43.551Z,99573.56
2023-01-10T00:35:48.160Z,99573.77
2023-01-10T00:36:51.059Z,99575.17
2023-01-10T00:37:57.958Z,99573.94
2023-01-10T00:39:00.927Z,99572.16
2023-01-10T00:40:07.875Z,99571.67
2023-01-10T00:41:30.810Z,99573.29
2023-01-10T00:42:52.412Z,99570.70
2023-01-10T00:43:58.083Z,99574.23
2023-01-10T00:45:01.293Z,99579.56
2023-01-10T00:46:04.376Z,99581.77
2023-01-10T00:47:07.484Z,99579.67
2023-01-10T00:48:10.342Z,99582.45
2023-01-10T00:49:16.352Z,99584.55
2023-01-10T00:50:19.363Z,99589.61
2023-01-10T00:51:22.312Z,99586.55
2023-01-10T00:52:25.179Z,99589.12
2023-01-10T00:53:28.079Z,99590.14
2023-01-10T00:54:31.103Z,99593.97
2023-01-10T00:55:35.049Z,99595.30
2023-01-10T00:56:37.937Z,99593.42
2023-01-10T00:57:40.788Z,99593.70
2023-01-10T00:58:44.952Z,99596.82
2023-01-10T00:59:47.899Z,99599.55
2023-01-10T01:00:50.926Z,99601.45
2023-01-10T01:01:54.044Z,99604.23
2023-01-10T01:02:57.381Z,99608.52
2023-01-10T01:04:00.399Z,99604.81
2023-01-10T01:05:04.645Z,99605.52
2023-01-10T01:06:08.441Z,99606.79
2023-01-10T01:07:11.331Z,99607.49
2023-01-10T01:08:15.995Z,99605.67
2023-01-10T01:09:19.076Z,99604.44
2023-01-10T01:10:27.653Z,99605.35
2023-01-10T01:11:30.955Z,99607.67
2023-01-10T01:12:33.820Z,99611.38
2023-01-10T01:13:36.789Z,99612.20
2023-01-10T01:14:39.648Z,99613.69
2023-01-10T01:15:42.567Z,99613.92
2023-01-10T01:16:45.506Z,99612.86
2023-01-10T01:17:48.847Z,99614.17
2023-01-10T01:18:51.781Z,99615.25
2023-01-10T01:19:54.751Z,99617.56
2023-01-10T01:21:01.011Z,99618.27
2023-01-10T01:22:03.883Z,99614.42
2023-01-10T01:23:06.793Z,99613.54
2023-01-10T01:24:10.837Z,99613.75
2023-01-10T01:25:13.783Z,99618.69
2023-01-10T01:26:16.623Z,99622.08
2023-01-10T01:27:21.088Z,99620.14
2023-01-10T01:28:24.931Z,99618.29
2023-01-10T01:29:38.538Z,99625.33
2023-01-10T01:30:45.957Z,99629.42
2023-01-10T01:31:49.591Z,99629.85
2023-01-10T01:32:52.686Z,99629.85
2023-01-10T01:33:55.599Z,99634.11
2023-01-10T01:34:58.461Z,99632.75
2023-01-10T01:36:01.376Z,99633.44
2023-01-10T01:37:04.234Z,99633.65
2023-01-10T01:38:07.117Z,99631.66
2023-01-10T01:39:10.060Z,99634.30
2023-01-10T01:40:15.353Z,99634.09
2023-01-10T01:41:36.761Z,99632.63
2023-01-10T01:42:39.825Z,99633.48
2023-01-10T01:44:01.025Z,99636.02
2023-01-10T01:45:10.258Z,99641.16
2023-01-10T01:46:13.239Z,99644.42
2023-01-10T01:47:26.859Z,99645.81
2023-01-10T01:48:36.883Z,99646.09
2023-01-10T01:49:43.854Z,99646.52
2023-01-10T01:51:16.077Z,99647.52
2023-01-10T01:52:25.713Z,99648.92
2023-01-10T01:53:40.523Z,99647.00
2023-01-10T01:54:43.862Z,99642.33
2023-01-10T01:55:48.248Z,99644.32
2023-01-10T01:57:00.804Z,99639.88
2023-01-10T01:58:09.589Z,99640.57
2023-01-10T01:59:26.373Z,99638.38
2023-01-10T02:00:29.319Z,99643.16
2023-01-10T02:01:34.049Z,99642.79
2023-01-10T02:02:51.140Z,99644.40
2023-01-10T02:04:13.698Z,99646.91
2023-01-10T02:05:18.970Z,99651.34
2023-01-10T02:06:24.897Z,99654.34
2023-01-10T02:07:31.806Z,99652.31
2023-01-10T02:08:35.382Z,99657.69
2023-01-10T02:09:45.819Z,99659.06
2023-01-10T02:10:55.458Z,99658.70
2023-01-10T02:11:58.320Z,99660.20
2023-01-10T02:13:05.054Z,99662.02
2023-01-10T02:14:10.108Z,99663.30
2023-01-10T02:15:16.393Z,99663.84
2023-01-10T02:16:19.457Z,99668.53
2023-01-10T02:17:22.346Z,99671.33
2023-01-10T02:18:25.335Z,99669.70
2023-01-10T02:19:48.421Z,99668.95
2023-01-10T02:21:36.102Z,99671.76
2023-01-10T02:22:42.352Z,99668.00
2023-01-10T02:24:16.427Z,99672.03
2023-01-10T02:25:43.776Z,99674.51
2023-01-10T02:26:55.738Z,99675.84
2023-01-10T02:28:23.665Z,99674.12
2023-01-10T02:30:15.801Z,99675.41
2023-01-10T02:31:30.702Z,99677.70
2023-01-10T02:32:45.756Z,99678.71
2023-01-10T02:33:55.916Z,99675.01
2023-01-10T02:35:04.738Z,99678.92
2023-01-10T02:36:26.306Z,99679.62
2023-01-10T02:37:38.339Z,99682.59
2023-01-10T02:38:47.813Z,99682.42
2023-01-10T02:39:56.786Z,99681.60
2023-01-10T02:41:22.590Z,99682.96
2023-01-10T02:42:48.333Z,99682.89
2023-01-10T02:43:57.645Z,99682.29
2023-01-10T02:45:09.481Z,99681.52
2023-01-10T02:46:25.548Z,99684.09
2023-01-10T02:47:36.138Z,99679.41
2023-01-10T02:48:39.012Z,99678.17
2023-01-10T02:49:47.252Z,99675.07
2023-01-10T02:50:57.277Z,99678.46
2023-01-10T02:52:00.197Z,99681.42
2023-01-10T02:53:18.929Z,99681.85
2023-01-10T02:54:30.864Z,99678.35
2023-01-10T02:56:01.925Z,99682.23
2023-01-10T02:57:35.931Z,99687.34
2023-01-10T02:58:56.769Z,99684.70
2023-01-10T03:00:24.692Z,99689.33
2023-01-10T03:01:49.601Z,99693.41
2023-01-10T03:03:15.097Z,99692.42
2023-01-10T03:04:31.136Z,99690.16
2023-01-10T03:05:55.629Z,99690.41
2023-01-10T03:07:25.186Z,99691.12
2023-01-10T03:08:43.985Z,99693.10
2023-01-10T03:10:07.767Z,99695.62
2023-01-10T03:11:11.869Z,99695.95
2023-01-10T03:12:27.214Z,99693.19
2023-01-10T03:13:58.135Z,99692.27
2023-01-10T03:15:04.737Z,99694.63
2023-01-10T03:16:20.156Z,99689.80
2023-01-10T03:17:26.226Z,99695.55
2023-01-10T03:18:54.405Z,99700.33
2023-01-10T03:20:02.332Z,99701.83
2023-01-10T03:21:08.127Z,99699.83
2023-01-10T03:22:11.942Z,99695.97
2023-01-10T03:23:17.235Z,99695.06
2023-01-10T03:24:33.904Z,99694.24
2023-01-10T03:25:38.824Z,99694.30
2023-01-10T03:27:04.046Z,99693.32
2023-01-10T03:28:13.162Z,99697.45
2023-01-10T03:29:22.091Z,99699.16
2023-01-10T03:30:35.887Z,99700.23
2023-01-10T03:32:06.577Z,99703.88
2023-01-10T03:33:11.859Z,99702.64
2023-01-10T03:34:14.926Z,99704.04
2023-01-10T03:35:21.180Z,99704.19
2023-01-10T03:36:53.740Z,99704.08
2023-01-10T03:38:04.033Z,99703.06
2023-01-10T03:39:20.030Z,99708.81
2023-01-10T03:40:42.365Z,99708.27
2023-01-10T03:41:59.372Z,99711.17
2023-01-10T03:44:05.689Z,99710.89
2023-01-10T03:45:13.611Z,99713.52
2023-01-10T03:46:27.760Z,99713.29
2023-01-10T03:47:45.478Z,99715.55
2023-01-10T03:48:49.506Z,99712.80
2023-01-10T03:50:01.094Z,99716.84
2023-01-10T03:51:06.564Z,99719.90
2023-01-10T03:52:13.748Z,99718.17
2023-01-10T03:53:17.507Z,99717.66
2023-01-10T03:54:20.404Z,99720.41
2023-01-10T03:55:27.398Z,99722.08
2023-01-10T03:56:30.294Z,99722.94
2023-01-10T03:57:33.479Z,99725.04
2023-01-10T03:58:36.372Z,99724.61
2023-01-10T03:59:39.303Z,99728.11
2023-01-10T04:00:42.216Z,99732.69
2023-01-10T04:01:45.215Z,99731.02
2023-01-10T04:02:48.264Z,99733.13
2023-01-10T04:03:51.344Z,99734.46
2023-01-10T04:04:54.314Z,99739.25
2023-01-10T04:05:57.236Z,99738.16
2023-01-10T04:07:00.318Z,99746.25
2023-01-10T04:08:03.253Z,99749.23
2023-01-10T04:09:06.138Z,99747.72
2023-01-10T04:10:10.282Z,99754.01
2023-01-10T04:11:13.187Z,99755.02
2023-01-10T04:12:16.113Z,99758.44
2023-01-10T04:13:18.952Z,99756.67
2023-01-10T04:14:21.931Z,99760.27
2023-01-10T04:15:24.746Z,99760.16
2023-01-10T04:16:27.867Z,99759.29
2023-01-10T04:17:30.806Z,99761.48
2023-01-10T04:18:33.976Z,99767.88
2023-01-10T04:19:36.880Z,99766.85
2023-01-10T04:20:39.775Z,99771.59
2023-01-10T04:21:42.623Z,99765.17
2023-01-10T04:22:46.004Z,99769.65
2023-01-10T04:23:48.899Z,99772.67
2023-01-10T04:24:52.272Z,99774.11
2023-01-10T04:26:04.785Z,99775.56
2023-01-10T04:27:07.983Z,99779.27
2023-01-10T04:28:10.820Z,99779.98
2023-01-10T04:29:13.741Z,99777.46
2023-01-10T04:30:32.615Z,99779.77
2023-01-10T04:31:35.750Z,99777.21
2023-01-10T04:32:39.044Z,99781.08
2023-01-10T04:33:42.003Z,99778.61
2023-01-10T04:34:45.456Z,99780.35
2023-01-10T04:35:52.342Z,99783.60
2023-01-10T04:36:55.302Z,99786.33
2023-01-10T04:37:58.205Z,99784.91
2023-01-10T04:39:01.201Z,99789.64
2023-01-10T04:40:04.877Z,99791.00
2023-01-10T04:41:07.808Z,99792.44
2023-01-10T04:42:10.665Z,99792.45
2023-01-10T04:43:13.690Z,99794.34
2023-01-10T04:44:16.571Z,99795.91
2023-01-10T04:45:20.562Z,99794.14
2023-01-10T04:46:23.435Z,99795.84
2023-01-10T04:47:26.338Z,99795.38
2023-01-10T04:48:29.245Z,99801.86
2023-01-10T04:49:32.131Z,99806.33
2023-01-10T04:50:35.057Z,99809.39
2023-01-10T04:51:38.179Z,99813.89
2023-01-10T04:52:41.289Z,99817.65
2023-01-10T04:53:44.162Z,99818.02
2023-01-10T04:54:47.047Z,99822.86
2023-01-10T04:55:50.069Z,99829.20
2023-01-10T04:56:53.128Z,99829.18
2023-01-10T04:57:56.009Z,99827.78
2023-01-10T04:58:58.955Z,99831.84
2023-01-10T05:00:01.852Z,99833.30
2023-01-10T05:01:27.280Z,99836.94
2023-01-10T05:02:30.434Z,99840.10
2023-01-10T05:03:33.401Z,99840.14
2023-01-10T05:04:36.297Z,99841.80
2023-01-10T05:05:39.422Z,99841.46
2023-01-10T05:07:11.629Z,99846.23
2023-01-10T05:08:14.613Z,99844.06
2023-01-10T05:09:17.691Z,99848.91
2023-01-10T05:10:21.046Z,99848.16
2023-01-10T05:11:24.150Z,99853.91
2023-01-10T05:12:26.983Z,99854.16
2023-01-10T05:13:29.812Z,99856.20
2023-01-10T05:14:33.037Z,99855.17
2023-01-10T05:15:35.843Z,99862.16
2023-01-10T05:16:38.917Z,99860.92
2023-01-10T05:17:41.947Z,99866.30
2023-01-10T05:18:45.475Z,99861.84
2023-01-10T05:19:48.349Z,99868.13
2023-01-10T05:20:51.584Z,99870.86
2023-01-10T05:21:54.448Z,99874.52
2023-01-10T05:22:57.360Z,99867.58
2023-01-10T05:24:00.233Z,99877.79
2023-01-10T05:25:03.184Z,99874.58
2023-01-10T05:26:13.221Z,99878.98
2023-01-10T05:27:16.703Z,99884.41
2023-01-10T05:28:19.560Z,99883.11
2023-01-10T05:29:22.469Z,99883.65
2023-01-10T05:30:25.530Z,99884.98
2023-01-10T05:31:28.540Z,99884.02
2023-01-10T05:32:31.436Z,99889.06
2023-01-10T05:33:34.817Z,99887.98
2023-01-10T05:34:37.780Z,99891.75
2023-01-10T05:35:40.776Z,99894.81
2023-01-10T05:36:43.599Z,99897.13
2023-01-10T05:37:46.461Z,99904.60
2023-01-10T05:38:49.277Z,99904.67
2023-01-10T05:39:52.178Z,99910.09
2023-01-10T05:40:58.921Z,99916.33
2023-01-10T05:42:01.944Z,99914.14
2023-01-10T05:43:04.842Z,99914.56
2023-01-10T05:44:08.109Z,99918.02
2023-01-10T05:45:11.412Z,99921.77
2023-01-10T05:46:14.342Z,99919.42
2023-01-10T05:47:17.199Z,99919.84
2023-01-10T05:48:20.263Z,99925.29
2023-01-10T05:49:23.084Z,99924.26
2023-01-10T05:50:26.007Z,99928.09
2023-01-10T05:51:28.864Z,99931.23
2023-01-10T05:52:31.805Z,99936.41
2023-01-10T05:53:34.716Z,99937.27
2023-01-10T05:54:37.641Z,99936.27
2023-01-10T05:55:40.810Z,99938.79
2023-01-10T05:56:43.649Z,99942.89
2023-01-10T05:57:46.601Z,99946.75
2023-01-10T05:58:54.017Z,99946.58
2023-01-10T06:00:00.182Z,99951.88
2023-01-10T06:01:03.251Z,99951.98
2023-01-10T06:02:06.210Z,99949.98
2023-01-10T06:03:09.115Z,99953.00
2023-01-10T06:04:12.008Z,99953.21
2023-01-10T06:05:14.988Z,99957.30
2023-01-10T06:06:17.880Z,99960.42
2023-01-10T06:07:21.268Z,99962.98
2023-01-10T06:08:24.940Z,99969.96
2023-01-10T06:09:27.836Z,99970.07
2023-01-10T06:10:30.758Z,99969.83
2023-01-10T06:11:36.593Z,99968.76
2023-01-10T06:12:40.389Z,99971.01
2023-01-10T06:13:43.252Z,99973.24
2023-01-10T06:14:46.272Z,99973.88
2023-01-10T06:15:52.520Z,99971.91
2023-01-10T06:16:55.772Z,99979.34
2023-01-10T06:17:58.729Z,99977.30
2023-01-10T06:19:01.700Z,99981.60
2023-01-10T06:20:05.081Z,99979.65
2023-01-10T06:21:07.973Z,99985.69
2023-01-10T06:22:10.944Z,99985.34
2023-01-10T06:23:13.908Z,99988.77
2023-01-10T06:24:16.805Z,99992.41
2023-01-10T06:25:19.685Z,99994.02
2023-01-10T06:26:22.565Z,99993.86
2023-01-10T06:27:25.540Z,99995.15
2023-01-10T06:28:28.468Z,99999.98
2023-01-10T06:29:31.553Z,99997.88
2023-01-10T06:30:35.477Z,99999.81
2023-01-10T06:31:38.384Z,100001.27
2023-01-10T06:32:42.634Z,100004.12
2023-01-10T06:33:45.629Z,100003.14
2023-01-10T06:34:48.415Z,100007.54
2023-01-10T06:35:51.589Z,100009.79
2023-01-10T06:36:54.828Z,100009.82
2023-01-10T06:37:58.766Z,100014.94
2023-01-10T06:39:02.185Z,100014.32
2023-01-10T06:40:06.475Z,100014.53
2023-01-10T06:41:15.662Z,100014.36
2023-01-10T06:42:18.547Z,100014.79
2023-01-10T06:43:21.455Z,100017.11
2023-01-10T06:44:24.342Z,100018.70
2023-01-10T06:45:27.279Z,100016.60
2023-01-10T06:46:30.218Z,100022.48
2023-01-10T06:47:33.072Z,100021.98
2023-01-10T06:48:36.950Z,100023.13
2023-01-10T06:49:39.900Z,100027.67
2023-01-10T06:50:42.789Z,100028.41
2023-01-10T06:51:45.658Z,100028.30
2023-01-10T06:53:02.993Z,100032.96
2023-01-10T06:54:06.046Z,100033.92
2023-01-10T06:55:09.268Z,100037.83
2023-01-10T06:56:12.329Z,100036.91
2023-01-10T06:57:15.727Z,100040.77
2023-01-10T06:58:18.737Z,100038.50
2023-01-10T06:59:21.669Z,100040.81
2023-01-10T07:00:25.744Z,100042.63
2023-01-10T07:01:28.763Z,100043.37
2023-01-10T07:02:31.978Z,100047.63
2023-01-10T07:03:34.996Z,100047.88
2023-01-10T07:04:37.882Z,100050.27
2023-01-10T07:05:40.824Z,100051.71
2023-01-10T07:06:43.878Z,100051.55
2023-01-10T07:07:46.928Z,100055.89
2023-01-10T07:08:49.760Z,100056.10
2023-01-10T07:09:52.621Z,100060.48
2023-01-10T07:10:59.103Z,100056.77
2023-01-10T07:12:02.101Z,100059.70
2023-01-10T07:13:05.012Z,100058.94
2023-01-10T07:14:09.830Z,100059.89
2023-01-10T07:15:12.812Z,100058.50
2023-01-10T07:16:16.562Z,100060.59
2023-01-10T07:17:19.749Z,100059.56
2023-01-10T07:18:22.626Z,100060.85
2023-01-10T07:19:25.506Z,100060.52
2023-01-10T07:20:28.759Z,100061.48
2023-01-10T07:21:31.685Z,100061.70
2023-01-10T07:22:34.520Z,100064.39
2023-01-10T07:23:38.338Z,100068.23
2023-01-10T07:24:41.225Z,100070.70
2023-01-10T07:25:44.570Z,100068.14
2023-01-10T07:26:47.456Z,100065.92
2023-01-10T07:27:50.807Z,100065.65
2023-01-10T07:28:54.217Z,100069.42
2023-01-10T07:29:57.119Z,100073.05
2023-01-10T07:31:01.940Z,100072.08
2023-01-10T07:32:05.502Z,100079.50
2023-01-10T07:33:08.398Z,100080.90
2023-01-10T07:34:11.443Z,100082.84
2023-01-10T07:35:14.361Z,100080.43
2023-01-10T07:36:17.359Z,100080.44
2023-01-10T07:37:20.728Z,100083.82
2023-01-10T07:38:23.649Z,100082.80
2023-01-10T07:39:26.517Z,100081.77
2023-01-10T07:40:29.894Z,100080.02
2023-01-10T07:41:32.839Z,100082.42
2023-01-10T07:42:35.844Z,100084.08
2023-01-10T07:43:39.359Z,100083.89
2023-01-10T07:44:42.225Z,100087.65
2023-01-10T07:45:45.301Z,100088.60
2023-01-10T07:46:48.196Z,100088.23
2023-01-10T07:47:51.463Z,100088.80
2023-01-10T07:48:54.323Z,100095.20
2023-01-10T07:49:57.185Z,100092.48
2023-01-10T07:51:01.362Z,100093.09
2023-01-10T07:52:05.234Z,100092.31
2023-01-10T07:53:08.752Z,100093.42
2023-01-10T07:54:13.598Z,100093.85
2023-01-10T07:55:18.047Z,100096.44
2023-01-10T07:56:21.141Z,100095.34
2023-01-10T07:57:24.111Z,100095.80
2023-01-10T07:58:27.586Z,100097.86
2023-01-10T07:59:30.460Z,100096.92
2023-01-10T08:00:34.941Z,100097.74
2023-01-10T08:01:37.804Z,100099.84
2023-01-10T08:02:40.815Z,100100.63
2023-01-10T08:03:43.867Z,100104.29
2023-01-10T08:04:46.790Z,100103.72
2023-01-10T08:05:49.614Z,100105.48
2023-01-10T08:06:55.001Z,100108.88
2023-01-10T08:08:00.296Z,100107.59
2023-01-10T08:09:05.358Z,100116.63
2023-01-10T08:10:08.841Z,100119.07
2023-01-10T08:11:11.735Z,100121.89
2023-01-10T08:12:14.659Z,100119.37
2023-01-10T08:13:19.201Z,100120.61
2023-01-10T08:14:22.920Z,100124.42
2023-01-10T08:15:25.907Z,100125.16
2023-01-10T08:16:28.781Z,100129.23
2023-01-10T08:17:35.700Z,100130.90
2023-01-10T08:18:42.489Z,100133.46
2023-01-10T08:19:45.825Z,100135.45
2023-01-10T08:20:50.621Z,100133.77
2023-01-10T08:21:55.125Z,100134.02
2023-01-10T08:22:59.628Z,100134.40
2023-01-10T08:24:02.534Z,100132.30
2023-01-10T08:25:05.683Z,100138.67
2023-01-10T08:26:08.614Z,100136.31
2023-01-10T08:27:11.610Z,100140.23
2023-01-10T08:28:15.051Z,100141.23
2023-01-10T08:29:18.081Z,100141.57
2023-01-10T08:30:22.454Z,100141.89
2023-01-10T08:31:25.540Z,100141.30
2023-01-10T08:32:28.555Z,100141.62
2023-01-10T08:33:31.535Z,100140.05
2023-01-10T08:34:34.611Z,100146.27
2023-01-10T08:35:42.584Z,100144.65
2023-01-10T08:36:46.809Z,100146.42
2023-01-10T08:37:50.278Z,100144.11
2023-01-10T08:38:55.423Z,100145.08
2023-01-10T08:39:58.561Z,100148.56
2023-01-10T08:41:01.492Z,100148.64
2023-01-10T08:42:04.493Z,100145.91
2023-01-10T08:43:11.742Z,100150.31
2023-01-10T08:44:15.872Z,100151.60
2023-01-10T08:45:18.954Z,100156.41
2023-01-10T08:46:22.121Z,100156.46
2023-01-10T08:47:25.378Z,100159.09
2023-01-10T08:48:28.373Z,100158.67
2023-01-10T08:49:31.477Z,100163.08
2023-01-10T08:50:35.031Z,100165.67
2023-01-10T08:51:38.753Z,100166.70
2023-01-10T08:52:41.900Z,100169.64
2023-01-10T08:53:44.875Z,100169.42
2023-01-10T08:54:48.223Z,100170.15
2023-01-10T08:55:51.210Z,100174.40
2023-01-10T08:56:54.332Z,100176.87
2023-01-10T08:58:00.967Z,100177.86
2023-01-10T08:59:03.935Z,100181.95
2023-01-10T09:00:07.483Z,100182.23
2023-01-10T09:01:12.132Z,100182.45
2023-01-10T09:02:15.222Z,100188.35
2023-01-10T09:03:19.812Z,100189.42
2023-01-10T09:04:22.920Z,100190.60
2023-01-10T09:05:27.741Z,100191.79
2023-01-10T09:06:31.245Z,100195.69
2023-01-10T09:07:34.190Z,100195.82
2023-01-10T09:08:38.232Z,100194.42
2023-01-10T09:09:41.487Z,100194.34
2023-01-10T09:10:44.606Z,100196.36
2023-01-10T09:11:47.521Z,100194.54
2023-01-10T09:12:56.736Z,100199.36
2023-01-10T09:13:59.674Z,100198.57
2023-01-10T09:15:03.038Z,100202.77
2023-01-10T09:16:06.559Z,100200.00
2023-01-10T09:17:09.794Z,100201.98
2023-01-10T09:18:14.652Z,100206.11
2023-01-10T09:19:18.334Z,100207.42
2023-01-10T09:20:21.282Z,100205.11
2023-01-10T09:21:24.861Z,100214.35
2023-01-10T09:22:27.763Z,100209.92
2023-01-10T09:23:30.679Z,100212.96
2023-01-10T09:24:33.515Z,100211.59
2023-01-10T09:25:36.875Z,100206.15
2023-01-10T09:26:39.806Z,100204.64
2023-01-10T09:27:42.709Z,100203.77
2023-01-10T09:28:48.051Z,100204.55
2023-01-10T09:29:52.050Z,100201.77
2023-01-10T09:30:55.097Z,100201.12
2023-01-10T09:31:57.951Z,100205.43
2023-01-10T09:33:01.533Z,100205.13
2023-01-10T09:34:04.370Z,100204.35
2023-01-10T09:35:07.638Z,100204.08
2023-01-10T09:36:13.713Z,100202.39
2023-01-10T09:37:16.974Z,100207.04
2023-01-10T09:38:20.068Z,100207.48
2023-01-10T09:39:23.021Z,100203.27
2023-01-10T09:40:52.378Z,100201.48
2023-01-10T09:42:05.996Z,100201.20
2023-01-10T09:43:28.519Z,100205.23
2023-01-10T09:44:59.639Z,100205.75
2023-01-10T09:46:10.285Z,100207.35
2023-01-10T09:47:30.056Z,100209.14
2023-01-10T09:49:14.263Z,100204.39
2023-01-10T09:50:45.294Z,100205.58
2023-01-10T09:51:50.947Z,100201.79
2023-01-10T09:52:59.519Z,100199.39
2023-01-10T09:54:12.171Z,100199.67
2023-01-10T09:55:32.845Z,100197.10
2023-01-10T09:56:36.547Z,100198.38
2023-01-10T09:57:39.502Z,100200.77
2023-01-10T09:58:44.190Z,100201.15
2023-01-10T09:59:51.907Z,100197.56
2023-01-10T10:00:58.746Z,100200.16
2023-01-10T10:02:17.329Z,100199.23
2023-01-10T10:03:26.166Z,100202.29
2023-01-10T10:04:35.478Z,100204.02
2023-01-10T10:05:38.456Z,100204.83
2023-01-10T10:06:41.497Z,100204.90
2023-01-10T10:07:45.450Z,100203.27
2023-01-10T10:08:48.523Z,100208.95
2023-01-10T10:09:51.476Z,100209.41
2023-01-10T10:11:16.508Z,100207.57
2023-01-10T10:12:43.791Z,100207.73
2023-01-10T10:13:46.738Z,100211.01
2023-01-10T10:14:52.211Z,100209.02
2023-01-10T10:16:07.252Z,100209.27
2023-01-10T10:17:31.187Z,100211.48
2023-01-10T10:19:02.520Z,100212.58
2023-01-10T10:20:31.941Z,100212.51
2023-01-10T10:22:08.116Z,100218.59
2023-01-10T10:23:45.506Z,100218.59
2023-01-10T10:24:55.967Z,100215.98
2023-01-10T10:26:32.698Z,100216.69
2023-01-10T10:27:49.287Z,100217.74
2023-01-10T10:29:24.093Z,100218.95
2023-01-10T10:30:44.413Z,100218.48
2023-01-10T10:32:12.041Z,100218.14
2023-01-10T10:33:50.151Z,100218.14
2023-01-10T10:34:59.054Z,100221.55
2023-01-10T10:36:24.620Z,100223.26
2023-01-10T10:37:41.722Z,100225.83
2023-01-10T10:38:48.682Z,100227.35
2023-01-10T10:39:57.307Z,100228.31
2023-01-10T10:41:01.510Z,100228.26
2023-01-10T10:42:11.075Z,100228.98
2023-01-10T10:43:22.000Z,100224.83
2023-01-10T10:44:38.796Z,100228.36
2023-01-10T10:45:51.553Z,100230.33
2023-01-10T10:46:57.039Z,100230.65
2023-01-10T10:48:11.929Z,100235.13
2023-01-10T10:49:24.104Z,100237.21
2023-01-10T10:50:35.722Z,100236.14
2023-01-10T10:51:49.801Z,100238.23
2023-01-10T10:52:52.871Z,100241.31
2023-01-10T10:53:57.264Z,100242.02
2023-01-10T10:55:01.368Z,100243.00
2023-01-10T10:56:09.646Z,100240.98
2023-01-10T10:57:13.240Z,100241.35
2023-01-10T10:58:18.042Z,100243.80
2023-01-10T10:59:22.103Z,100236.56
2023-01-10T11:00:27.070Z,100245.48
2023-01-10T11:01:30.130Z,100244.60
2023-01-10T11:02:40.951Z,100242.83
2023-01-10T11:03:58.496Z,100242.83
2023-01-10T11:05:05.320Z,100239.88
2023-01-10T11:06:10.172Z,100238.09
2023-01-10T11:07:17.966Z,100242.41
2023-01-10T11:08:23.027Z,100243.51
2023-01-10T11:09:37.197Z,100238.59
2023-01-10T11:10:42.605Z,100242.36
2023-01-10T11:11:50.436Z,100243.45
2023-01-10T11:12:53.392Z,100245.00
2023-01-10T11:13:58.784Z,100248.11
2023-01-10T11:15:01.818Z,100252.48
2023-01-10T11:16:06.276Z,100250.64
2023-01-10T11:17:28.067Z,100253.29
2023-01-10T11:18:31.908Z,100251.73
2023-01-10T11:19:34.797Z,100257.48
2023-01-10T11:20:38.369Z,100258.98
2023-01-10T11:21:42.108Z,100262.59
2023-01-10T11:22:51.497Z,100265.28
2023-01-10T11:23:54.576Z,100270.38
2023-01-10T11:25:02.714Z,100270.98
2023-01-10T11:26:08.800Z,100270.91
2023-01-10T11:27:36.123Z,100275.28
2023-01-10T11:28:39.310Z,100275.45
2023-01-10T11:29:56.631Z,100276.15
2023-01-10T11:31:01.033Z,100278.96
2023-01-10T11:32:15.173Z,100280.86
2023-01-10T11:33:23.223Z,100285.54
2023-01-10T11:34:31.709Z,100282.36
2023-01-10T11:35:41.447Z,100286.80
2023-01-10T11:36:56.582Z,100288.17
2023-01-10T11:38:03.396Z,100292.16
2023-01-10T11:39:06.286Z,100292.98
2023-01-10T11:40:25.874Z,100294.52
2023-01-10T11:41:34.459Z,100295.90
2023-01-10T11:42:37.470Z,100295.02
2023-01-10T11:43:41.357Z,100299.85
2023-01-10T11:44:44.265Z,100296.58
2023-01-10T11:45:55.001Z,100299.17
2023-01-10T11:47:03.867Z,100296.26
2023-01-10T11:48:21.401Z,100299.66
2023-01-10T11:49:35.253Z,100302.86
2023-01-10T11:50:42.473Z,100306.73
2023-01-10T11:51:48.716Z,100302.22
2023-01-10T11:52:53.280Z,100299.34
2023-01-10T11:54:02.711Z,100298.46
2023-01-10T11:55:08.111Z,100297.48
2023-01-10T11:56:22.439Z,100298.20
2023-01-10T11:57:28.775Z,100304.48
2023-01-10T11:58:34.616Z,100302.88
2023-01-10T11:59:39.227Z,100309.54
2023-01-10T12:00:51.308Z,100311.01
2023-01-10T12:02:05.230Z,100316.02
2023-01-10T12:03:23.982Z,100319.69
2023-01-10T12:04:31.660Z,100319.48
2023-01-10T12:05:34.839Z,100317.71
2023-01-10T12:06:45.233Z,100319.95
2023-01-10T12:07:56.306Z,100321.82
2023-01-10T12:09:00.405Z,100320.59
2023-01-10T12:10:04.193Z,100324.79
2023-01-10T12:11:31.625Z,100327.98
2023-01-10T12:12:36.336Z,100331.21
2023-01-10T12:13:54.935Z,100329.41
2023-01-10T12:15:00.180Z,100329.86
2023-01-10T12:16:26.462Z,100328.80
2023-01-10T12:17:35.815Z,100332.27
2023-01-10T12:18:38.725Z,100333.25
2023-01-10T12:19:41.607Z,100335.98
2023-01-10T12:20:51.373Z,100336.29
2023-01-10T12:21:55.077Z,100340.96
2023-01-10T12:23:08.097Z,100344.23
2023-01-10T12:24:29.246Z,100338.04
2023-01-10T12:25:37.936Z,100346.38
2023-01-10T12:26:42.280Z,100348.34
2023-01-10T12:27:49.069Z,100350.02
2023-01-10T12:29:00.007Z,100352.80
2023-01-10T12:30:20.005Z,100353.05
2023-01-10T12:31:24.016Z,100353.73
2023-01-10T12:32:34.248Z,100357.45
2023-01-10T12:33:51.933Z,100356.70
2023-01-10T12:35:03.917Z,100360.59
2023-01-10T12:36:31.506Z,100360.70
2023-01-10T12:37:45.885Z,100358.52
2023-01-10T12:39:05.464Z,100360.02
2023-01-10T12:40:16.286Z,100364.18
2023-01-10T12:41:54.153Z,100367.02
2023-01-10T12:43:26.224Z,100368.29
2023-01-10T12:44:37.844Z,100368.56
2023-01-10T12:45:49.338Z,100373.15
2023-01-10T12:47:09.865Z,100374.90
2023-01-10T12:48:22.598Z,100374.88
2023-01-10T12:50:07.337Z,100375.38
2023-01-10T12:51:18.807Z,100376.14
2023-01-10T12:52:45.849Z,100375.65
2023-01-10T12:53:55.623Z,100378.09
2023-01-10T12:54:58.783Z,100380.11
2023-01-10T12:56:07.837Z,100381.67
2023-01-10T12:57:39.551Z,100383.42
2023-01-10T12:59:05.203Z,100383.02
2023-01-10T13:00:29.543Z,100383.81
2023-01-10T13:01:40.559Z,100390.77
2023-01-10T13:02:47.088Z,100390.29
2023-01-10T13:04:14.028Z,100388.55